Uccle, Belgium
Current Conditions -  °F | °C
As of 2:50 AM on Tuesday 25 Nov 2014 (Local Time) from EBBR Reporting Station
Clear Clear  
Wind Chill: 34°   Ceiling: Unl
Heat Index: 34°   Visibility: 5mi
Dew Point: 32°   Wind: 3mph
Humidity: 93%   Direction: 80°E
Pressure: 30.3"   Gusts: NA
Location:  50.79°N, 4.36°E
Report Text: EBBR 250150Z 08003KT 8000 NSC 01/M00 Q1026 NOSIG
Loading
Personal Weather Stations






























Interactive Weather Map New forecast layout! Learn more

10-Day Weather Forecast

Advertisements
Track Severe Weather on mobile